createdAt,value
2023-04-25T00:02:39.476Z,3.03
2023-04-25T00:07:44.607Z,3.17
2023-04-25T00:12:47.928Z,2.73
2023-04-25T00:17:54.328Z,3.17
2023-04-25T00:22:58.460Z,3.10
2023-04-25T00:28:01.887Z,3.47
2023-04-25T00:33:07.047Z,3.20
2023-04-25T00:38:11.134Z,3.47
2023-04-25T00:43:14.320Z,3.17
2023-04-25T00:48:19.837Z,3.00
2023-04-25T00:53:23.784Z,3.17
2023-04-25T00:58:27.484Z,3.20
2023-04-25T01:03:37.524Z,3.43
2023-04-25T01:08:42.964Z,3.30
2023-04-25T01:13:46.516Z,3.47
2023-04-25T01:18:52.762Z,3.60
2023-04-25T01:23:59.898Z,3.70
2023-04-25T01:29:04.935Z,4.10
2023-04-25T01:34:08.518Z,3.60
2023-04-25T01:39:13.510Z,3.80
2023-04-25T01:44:17.646Z,4.07
2023-04-25T01:49:21.982Z,3.80
2023-04-25T01:54:26.788Z,3.40
2023-04-25T01:59:30.278Z,3.60
2023-04-25T02:04:35.263Z,3.60
2023-04-25T02:09:40.761Z,3.30
2023-04-25T02:14:44.231Z,3.90
2023-04-25T02:19:47.590Z,3.77
2023-04-25T02:24:53.335Z,4.40
2023-04-25T02:29:56.591Z,5.20
2023-04-25T02:35:04.827Z,4.77
2023-04-25T02:40:12.196Z,5.10
2023-04-25T02:45:15.589Z,5.30
2023-04-25T02:50:19.958Z,5.73
2023-04-25T02:55:27.065Z,4.33
2023-04-25T03:00:31.535Z,5.13
2023-04-25T03:05:36.294Z,4.17
2023-04-25T03:10:41.230Z,4.70
2023-04-25T03:15:44.926Z,4.87
2023-04-25T03:20:49.051Z,4.70
2023-04-25T03:25:54.296Z,5.07
2023-04-25T03:30:57.747Z,5.00
2023-04-25T03:36:01.031Z,4.50
2023-04-25T03:41:06.784Z,5.00
2023-04-25T03:46:10.116Z,5.50
2023-04-25T03:51:13.877Z,5.00
2023-04-25T03:56:18.793Z,4.63
2023-04-25T04:01:22.650Z,4.67
2023-04-25T04:06:26.710Z,4.47
2023-04-25T04:11:32.568Z,4.53
2023-04-25T04:16:41.206Z,4.73
2023-04-25T04:21:45.491Z,4.47
2023-04-25T04:26:52.074Z,4.10
2023-04-25T04:31:57.044Z,4.23
2023-04-25T04:37:01.638Z,3.77
2023-04-25T04:42:07.779Z,3.93
2023-04-25T04:47:11.799Z,4.10
2023-04-25T04:52:15.829Z,4.40
2023-04-25T04:57:20.637Z,4.27
2023-04-25T05:02:24.816Z,4.27
2023-04-25T05:07:28.734Z,4.63
2023-04-25T05:12:38.553Z,3.97
2023-04-25T05:17:42.864Z,5.10
2023-04-25T05:22:48.963Z,4.30
2023-04-25T05:27:54.550Z,4.10
2023-04-25T05:32:58.695Z,3.70
2023-04-25T05:38:02.013Z,3.63
2023-04-25T05:43:06.924Z,4.10
2023-04-25T05:48:10.795Z,4.13
2023-04-25T05:53:14.235Z,3.58
2023-04-25T05:58:19.990Z,3.60
2023-04-25T06:03:24.016Z,3.30
2023-04-25T06:08:27.958Z,3.20
2023-04-25T06:13:33.981Z,3.30
2023-04-25T06:18:37.424Z,3.33
2023-04-25T06:23:40.912Z,3.70
2023-04-25T06:28:47.116Z,3.15
2023-04-25T06:33:51.543Z,2.90
2023-04-25T06:38:55.468Z,2.90
2023-04-25T06:44:00.266Z,3.03
2023-04-25T06:49:03.444Z,3.10
2023-04-25T06:54:07.351Z,3.05
2023-04-25T06:59:12.013Z,3.17
2023-04-25T07:04:17.963Z,3.75
2023-04-25T07:09:21.704Z,3.50
2023-04-25T07:14:27.253Z,3.50
2023-04-25T07:19:30.956Z,3.25
2023-04-25T07:25:35.093Z,3.50
2023-04-25T07:30:49.835Z,3.58
2023-04-25T07:36:14.045Z,3.72
2023-04-25T07:41:23.531Z,3.65
2023-04-25T07:46:28.400Z,4.18
2023-04-25T07:51:32.702Z,4.20
2023-04-25T07:57:19.812Z,4.05
2023-04-25T08:02:27.555Z,4.22
2023-04-25T08:07:32.073Z,2.45
2023-04-25T08:12:36.055Z,2.13
2023-04-25T08:17:41.121Z,1.85
2023-04-25T08:22:45.283Z,1.90
2023-04-25T08:27:49.852Z,1.95
2023-04-25T08:38:12.534Z,2.17
2023-04-25T08:43:17.275Z,2.75
2023-04-25T08:48:24.064Z,2.22
2023-04-25T08:53:29.333Z,2.40
2023-04-25T08:58:34.925Z,3.22
2023-04-25T09:03:40.951Z,1.95
2023-04-25T09:08:44.785Z,2.78
2023-04-25T09:13:49.252Z,2.40
2023-04-25T09:18:54.896Z,2.60
2023-04-25T09:24:01.208Z,2.60
2023-04-25T09:29:08.432Z,2.78
2023-04-25T09:34:16.871Z,2.25
2023-04-25T09:39:24.061Z,2.65
2023-04-25T09:44:29.330Z,2.45
2023-04-25T09:49:34.892Z,2.70
2023-04-25T09:54:39.283Z,3.30
2023-04-25T09:59:48.181Z,3.17
2023-04-25T10:04:56.561Z,4.03
2023-04-25T10:10:04.974Z,2.75
2023-04-25T10:15:11.545Z,3.47
2023-04-25T10:20:16.856Z,3.15
2023-04-25T10:25:22.846Z,3.80
2023-04-25T10:30:27.038Z,3.92
2023-04-25T10:35:33.793Z,3.80
2023-04-25T10:40:37.311Z,5.13
2023-04-25T10:45:54.244Z,4.28
2023-04-25T10:51:11.397Z,4.60
2023-04-25T10:56:22.451Z,3.50
2023-04-25T11:01:27.684Z,4.38
2023-04-25T11:06:52.048Z,3.40
2023-04-25T11:11:57.523Z,3.85
2023-04-25T11:17:02.127Z,3.20
2023-04-25T11:22:07.925Z,3.90
2023-04-25T11:27:12.655Z,3.30
2023-04-25T11:32:21.662Z,3.07
2023-04-25T11:37:26.692Z,3.60
2023-04-25T11:42:30.430Z,2.73
2023-04-25T11:47:34.430Z,2.27
2023-04-25T11:52:40.500Z,2.27
2023-04-25T11:57:44.815Z,2.60
2023-04-25T12:02:50.056Z,2.83
2023-04-25T12:07:55.344Z,2.27
2023-04-25T12:13:01.533Z,2.20
2023-04-25T12:18:07.340Z,2.05
2023-04-25T12:23:15.659Z,2.50
2023-04-25T12:28:21.300Z,2.10
2023-04-25T12:33:25.121Z,2.00
2023-04-25T12:38:35.529Z,2.03
2023-04-25T12:43:38.998Z,1.80
2023-04-25T12:48:42.788Z,2.00
2023-04-25T12:53:47.912Z,1.70
2023-04-25T12:58:52.287Z,1.55
2023-04-25T13:03:56.680Z,1.40
2023-04-25T13:09:01.517Z,1.60
2023-04-25T13:14:05.270Z,1.35
2023-04-25T13:19:12.073Z,1.23
2023-04-25T13:24:17.429Z,1.50
2023-04-25T13:29:21.627Z,1.53
2023-04-25T13:34:25.675Z,1.37
2023-04-25T13:39:31.012Z,1.48
2023-04-25T13:44:34.647Z,1.20
2023-04-25T13:49:38.571Z,1.27
2023-04-25T13:54:44.361Z,1.50
2023-04-25T13:59:48.460Z,1.73
2023-04-25T14:04:55.081Z,1.65
2023-04-25T14:10:00.811Z,1.65
2023-04-25T14:15:22.904Z,1.50
2023-04-25T14:20:45.048Z,1.48
2023-04-25T14:26:25.529Z,1.65
2023-04-25T14:31:47.982Z,1.40
2023-04-25T14:37:10.908Z,1.80
2023-04-25T14:42:35.657Z,1.40
2023-04-25T14:47:40.726Z,1.33
2023-04-25T14:52:44.233Z,1.25
2023-04-25T14:57:49.728Z,1.25
2023-04-25T15:02:53.996Z,1.45
2023-04-25T15:08:19.965Z,2.20
2023-04-25T15:13:45.610Z,1.80
2023-04-25T15:19:09.929Z,1.50
2023-04-25T15:24:32.979Z,1.80
2023-04-25T15:29:37.983Z,1.30
2023-04-25T15:34:41.502Z,1.98
2023-04-25T15:39:46.643Z,1.20
2023-04-25T15:44:51.650Z,1.17
2023-04-25T15:49:54.968Z,1.35
2023-04-25T15:54:58.909Z,1.50
2023-04-25T16:00:13.284Z,1.60
2023-04-25T16:05:29.276Z,1.30
2023-04-25T16:10:33.098Z,1.27
2023-04-25T16:15:58.370Z,1.20
2023-04-25T16:21:02.093Z,2.33
2023-04-25T16:26:05.716Z,1.70
2023-04-25T16:31:10.829Z,1.60
2023-04-25T16:36:14.892Z,1.30
2023-04-25T16:41:19.026Z,2.28
2023-04-25T16:46:24.125Z,1.90
2023-04-25T16:51:40.491Z,2.23
2023-04-25T16:56:49.304Z,1.88
2023-04-25T17:02:12.371Z,2.10
2023-04-25T17:07:16.074Z,1.60
2023-04-25T17:12:21.935Z,1.50
2023-04-25T17:17:27.298Z,1.80
2023-04-25T17:22:35.247Z,1.80
2023-04-25T17:27:39.125Z,1.73
2023-04-25T17:32:43.983Z,2.20
2023-04-25T17:37:48.860Z,2.10
2023-04-25T17:42:55.425Z,1.50
2023-04-25T17:48:02.710Z,1.70
2023-04-25T17:53:06.134Z,1.93
2023-04-25T17:58:10.146Z,1.87
2023-04-25T18:03:17.681Z,1.93
2023-04-25T18:08:22.792Z,1.87
2023-04-25T18:13:27.707Z,1.37
2023-04-25T18:18:34.744Z,2.20
2023-04-25T18:23:39.713Z,2.10
2023-04-25T18:28:45.475Z,1.20
2023-04-25T18:33:51.786Z,1.67
2023-04-25T18:39:05.432Z,1.50
2023-04-25T18:44:15.440Z,1.40
2023-04-25T18:49:21.649Z,1.30
2023-04-25T18:54:29.171Z,1.10
2023-04-25T18:59:33.836Z,0.80
2023-04-25T19:04:57.208Z,1.30
2023-04-25T19:10:11.131Z,1.20
2023-04-25T19:15:27.297Z,4.10
2023-04-25T19:20:53.964Z,3.40
2023-04-25T19:26:07.077Z,1.40
2023-04-25T19:31:17.899Z,1.70
2023-04-25T19:36:26.019Z,1.37
2023-04-25T19:41:36.172Z,1.83
2023-04-25T19:46:44.200Z,1.30
2023-04-25T19:51:55.918Z,1.10
2023-04-25T19:57:00.526Z,1.40
2023-04-25T20:02:07.251Z,1.30
2023-04-25T20:07:12.581Z,1.40
2023-04-25T20:12:16.615Z,1.43
2023-04-25T20:17:20.103Z,1.30
2023-04-25T20:22:25.774Z,1.63
2023-04-25T20:27:29.899Z,1.60
2023-04-25T20:32:38.042Z,1.30
2023-04-25T20:37:43.826Z,1.57
2023-04-25T20:42:48.931Z,1.50
2023-04-25T20:47:53.680Z,1.80
2023-04-25T20:52:58.534Z,1.50
2023-04-25T20:58:08.503Z,1.60
2023-04-25T21:03:13.255Z,1.30
2023-04-25T21:08:18.730Z,1.47
2023-04-25T21:13:24.278Z,1.37
2023-04-25T21:18:30.130Z,1.33
2023-04-25T21:23:38.132Z,1.40
2023-04-25T21:28:41.906Z,2.00
2023-04-25T21:33:45.513Z,1.70
2023-04-25T21:38:50.461Z,1.50
2023-04-25T21:43:54.294Z,1.70
2023-04-25T21:48:57.751Z,1.40
2023-04-25T21:54:05.439Z,1.20
2023-04-25T21:59:08.950Z,1.43
2023-04-25T22:04:12.984Z,1.77
2023-04-25T22:09:18.474Z,1.53
2023-04-25T22:14:23.228Z,1.67
2023-04-25T22:19:28.493Z,2.20
2023-04-25T22:24:33.306Z,1.53
2023-04-25T22:29:42.255Z,1.50
2023-04-25T22:34:46.155Z,1.50
2023-04-25T22:39:53.142Z,1.40
2023-04-25T22:44:56.581Z,1.50
2023-04-25T22:50:00.543Z,1.93
2023-04-25T22:55:05.994Z,1.70
2023-04-25T23:00:16.008Z,1.50
2023-04-25T23:05:20.389Z,1.70
2023-04-25T23:10:26.026Z,1.53
2023-04-25T23:15:39.709Z,1.77
2023-04-25T23:20:43.304Z,1.40
2023-04-25T23:25:49.250Z,1.40
2023-04-25T23:30:53.110Z,2.40
2023-04-25T23:35:56.817Z,2.27
2023-04-25T23:41:03.423Z,1.47
2023-04-25T23:46:10.145Z,1.50
2023-04-25T23:51:14.234Z,1.67
2023-04-25T23:56:19.256Z,1.90
